sensor_id;sensor_type;location;lat;lon;timestamp;pressure;altitude;pressure_sealevel;temperature;humidity
25156;BME280;21913;52.456;13.634;2022-08-01T00:04:45;100234.69;;;20.83;69.97
25156;BME280;21913;52.456;13.634;2022-08-01T00:09:47;100228.63;;;20.81;70.02
25156;BME280;21913;52.456;13.634;2022-08-01T00:14:48;100236.47;;;20.83;70.14
25156;BME280;21913;52.456;13.634;2022-08-01T00:19:50;100225.06;;;20.82;70.21
25156;BME280;21913;52.456;13.634;2022-08-01T00:24:51;100228.63;;;20.81;70.32
25156;BME280;21913;52.456;13.634;2022-08-01T00:29:52;100235.59;;;20.82;70.24
25156;BME280;21913;52.456;13.634;2022-08-01T00:34:54;100231.25;;;20.81;70.33
25156;BME280;21913;52.456;13.634;2022-08-01T00:39:56;100230.31;;;20.82;70.38
25156;BME280;21913;52.456;13.634;2022-08-01T00:44:57;100234.72;;;20.82;70.02
25156;BME280;21913;52.456;13.634;2022-08-01T00:49:59;100228.63;;;20.81;70.32
25156;BME280;21913;52.456;13.634;2022-08-01T00:55:00;100227.75;;;20.81;70.36
25156;BME280;21913;52.456;13.634;2022-08-01T01:00:03;100228.63;;;20.81;70.41
25156;BME280;21913;52.456;13.634;2022-08-01T01:05:05;100233.03;;;20.81;70.20
25156;BME280;21913;52.456;13.634;2022-08-01T01:10:09;100229.47;;;20.82;70.44
25156;BME280;21913;52.456;13.634;2022-08-01T01:15:15;100233.88;;;20.81;70.21
25156;BME280;21913;52.456;13.634;2022-08-01T01:20:18;100227.75;;;20.81;70.43
25156;BME280;21913;52.456;13.634;2022-08-01T01:30:38;100237.38;;;20.82;70.47
25156;BME280;21913;52.456;13.634;2022-08-01T01:35:42;100237.44;;;20.80;70.21
25156;BME280;21913;52.456;13.634;2022-08-01T01:40:46;100248.81;;;20.81;70.46
25156;BME280;21913;52.456;13.634;2022-08-01T01:45:48;100242.69;;;20.80;70.14
25156;BME280;21913;52.456;13.634;2022-08-01T01:50:51;100245.31;;;20.80;70.22
25156;BME280;21913;52.456;13.634;2022-08-01T01:55:53;100248.81;;;20.81;70.56
25156;BME280;21913;52.456;13.634;2022-08-01T02:00:56;100242.69;;;20.80;70.25
25156;BME280;21913;52.456;13.634;2022-08-01T02:05:59;100247.94;;;20.80;70.26
25156;BME280;21913;52.456;13.634;2022-08-01T02:11:02;100252.34;;;20.80;70.63
25156;BME280;21913;52.456;13.634;2022-08-01T02:16:04;100252.34;;;20.80;70.54
25156;BME280;21913;52.456;13.634;2022-08-01T02:21:08;100246.25;;;20.79;70.27
25156;BME280;21913;52.456;13.634;2022-08-01T02:26:10;100241.84;;;20.80;70.62
25156;BME280;21913;52.456;13.634;2022-08-01T02:31:16;100248.88;;;20.79;70.55
25156;BME280;21913;52.456;13.634;2022-08-01T02:36:18;100240.97;;;20.79;70.34
25156;BME280;21913;52.456;13.634;2022-08-01T02:41:20;100248.88;;;20.79;70.62
25156;BME280;21913;52.456;13.634;2022-08-01T02:46:24;100251.50;;;20.79;70.30
25156;BME280;21913;52.456;13.634;2022-08-01T02:51:27;100251.50;;;20.79;70.41
25156;BME280;21913;52.456;13.634;2022-08-01T02:56:29;100252.41;;;20.78;70.40
25156;BME280;21913;52.456;13.634;2022-08-01T03:01:32;100258.53;;;20.79;70.44
25156;BME280;21913;52.456;13.634;2022-08-01T03:06:35;100260.31;;;20.78;70.43
25156;BME280;21913;52.456;13.634;2022-08-01T03:11:37;100263.78;;;20.79;70.44
25156;BME280;21913;52.456;13.634;2022-08-01T03:16:41;100257.72;;;20.77;70.53
25156;BME280;21913;52.456;13.634;2022-08-01T03:21:43;100259.47;;;20.78;70.74
25156;BME280;21913;52.456;13.634;2022-08-01T03:26:45;100265.56;;;20.78;70.71
25156;BME280;21913;52.456;13.634;2022-08-01T03:31:47;100267.34;;;20.78;70.36
25156;BME280;21913;52.456;13.634;2022-08-01T03:36:54;100265.56;;;20.78;70.49
25156;BME280;21913;52.456;13.634;2022-08-01T03:42:00;100270.84;;;20.78;70.57
25156;BME280;21913;52.456;13.634;2022-08-01T03:47:04;100268.19;;;20.78;70.54
25156;BME280;21913;52.456;13.634;2022-08-01T03:52:07;100259.47;;;20.78;70.79
25156;BME280;21913;52.456;13.634;2022-08-01T03:57:09;100255.97;;;20.77;70.61
25156;BME280;21913;52.456;13.634;2022-08-01T04:02:11;100257.72;;;20.77;70.51
25156;BME280;21913;52.456;13.634;2022-08-01T04:07:23;100264.75;;;20.76;70.79
25156;BME280;21913;52.456;13.634;2022-08-01T04:12:25;100272.63;;;20.76;70.48
25156;BME280;21913;52.456;13.634;2022-08-01T04:17:26;100279.66;;;20.75;70.51
25156;BME280;21913;52.456;13.634;2022-08-01T04:22:27;100285.75;;;20.78;70.87
25156;BME280;21913;52.456;13.634;2022-08-01T04:27:29;100295.41;;;20.77;70.68
25156;BME280;21913;52.456;13.634;2022-08-01T04:32:33;100289.28;;;20.77;70.52
25156;BME280;21913;52.456;13.634;2022-08-01T04:37:35;100293.66;;;20.76;70.81
25156;BME280;21913;52.456;13.634;2022-08-01T04:42:37;100299.84;;;20.75;70.53
25156;BME280;21913;52.456;13.634;2022-08-01T04:47:39;100307.75;;;20.75;70.83
25156;BME280;21913;52.456;13.634;2022-08-01T04:52:41;100308.59;;;20.75;70.70
25156;BME280;21913;52.456;13.634;2022-08-01T04:57:44;100305.97;;;20.75;70.55
25156;BME280;21913;52.456;13.634;2022-08-01T05:02:46;100308.59;;;20.75;70.80
25156;BME280;21913;52.456;13.634;2022-08-01T05:07:47;100309.44;;;20.76;70.66
25156;BME280;21913;52.456;13.634;2022-08-01T05:12:48;100310.38;;;20.75;70.59
25156;BME280;21913;52.456;13.634;2022-08-01T05:17:50;100312.09;;;20.76;70.69
25156;BME280;21913;52.456;13.634;2022-08-01T05:22:51;100315.63;;;20.75;71.01
25156;BME280;21913;52.456;13.634;2022-08-01T05:27:53;100320.88;;;20.75;70.76
25156;BME280;21913;52.456;13.634;2022-08-01T05:32:54;100320.88;;;20.75;70.95
25156;BME280;21913;52.456;13.634;2022-08-01T05:37:56;100332.31;;;20.74;70.74
25156;BME280;21913;52.456;13.634;2022-08-01T05:42:57;100328.78;;;20.75;70.96
25156;BME280;21913;52.456;13.634;2022-08-01T05:47:58;100333.19;;;20.74;70.88
25156;BME280;21913;52.456;13.634;2022-08-01T05:53:00;100334.03;;;20.75;71.00
25156;BME280;21913;52.456;13.634;2022-08-01T05:58:02;100346.25;;;20.76;71.04
25156;BME280;21913;52.456;13.634;2022-08-01T06:03:04;100342.00;;;20.73;71.07
25156;BME280;21913;52.456;13.634;2022-08-01T06:08:06;100341.13;;;20.73;71.04
25156;BME280;21913;52.456;13.634;2022-08-01T06:13:07;100352.50;;;20.73;70.82
25156;BME280;21913;52.456;13.634;2022-08-01T06:18:08;100349.88;;;20.73;71.05
25156;BME280;21913;52.456;13.634;2022-08-01T06:23:10;100352.50;;;20.73;70.82
25156;BME280;21913;52.456;13.634;2022-08-01T06:28:11;100353.34;;;20.74;70.70
25156;BME280;21913;52.456;13.634;2022-08-01T06:33:13;100361.25;;;20.74;71.15
25156;BME280;21913;52.456;13.634;2022-08-01T06:38:14;100360.41;;;20.73;71.16
25156;BME280;21913;52.456;13.634;2022-08-01T06:43:16;100356.91;;;20.73;71.05
25156;BME280;21913;52.456;13.634;2022-08-01T06:48:17;100352.50;;;20.73;70.90
25156;BME280;21913;52.456;13.634;2022-08-01T06:53:18;100352.50;;;20.73;70.83
25156;BME280;21913;52.456;13.634;2022-08-01T06:58:20;100363.03;;;20.73;70.85
25156;BME280;21913;52.456;13.634;2022-08-01T07:03:21;100357.75;;;20.73;70.74
25156;BME280;21913;52.456;13.634;2022-08-01T07:08:23;100365.66;;;20.73;70.84
25156;BME280;21913;52.456;13.634;2022-08-01T07:13:27;100355.13;;;20.73;71.14
25156;BME280;21913;52.456;13.634;2022-08-01T07:18:29;100351.66;;;20.73;70.85
25156;BME280;21913;52.456;13.634;2022-08-01T07:23:30;100349.03;;;20.73;70.85
25156;BME280;21913;52.456;13.634;2022-08-01T07:28:32;100362.16;;;20.73;70.82
25156;BME280;21913;52.456;13.634;2022-08-01T07:33:33;100361.25;;;20.74;71.13
25156;BME280;21913;52.456;13.634;2022-08-01T07:38:34;100363.03;;;20.73;70.98
25156;BME280;21913;52.456;13.634;2022-08-01T07:43:36;100376.16;;;20.73;71.00
25156;BME280;21913;52.456;13.634;2022-08-01T07:48:37;100375.31;;;20.73;70.93
25156;BME280;21913;52.456;13.634;2022-08-01T07:53:39;100380.56;;;20.73;70.94
25156;BME280;21913;52.456;13.634;2022-08-01T07:58:40;100379.72;;;20.72;70.99
25156;BME280;21913;52.456;13.634;2022-08-01T08:03:42;100384.13;;;20.72;71.00
25156;BME280;21913;52.456;13.634;2022-08-01T08:08:43;100384.13;;;20.72;70.95
25156;BME280;21913;52.456;13.634;2022-08-01T08:13:44;100392.00;;;20.72;71.07
25156;BME280;21913;52.456;13.634;2022-08-01T08:18:46;100392.88;;;20.72;71.27
25156;BME280;21913;52.456;13.634;2022-08-01T08:23:47;100397.28;;;20.72;71.01
25156;BME280;21913;52.456;13.634;2022-08-01T08:28:49;100403.38;;;20.72;71.28
25156;BME280;21913;52.456;13.634;2022-08-01T08:33:50;100397.28;;;20.72;71.06
25156;BME280;21913;52.456;13.634;2022-08-01T08:38:52;100399.03;;;20.71;71.11
25156;BME280;21913;52.456;13.634;2022-08-01T08:43:53;100409.59;;;20.70;71.19
25156;BME280;21913;52.456;13.634;2022-08-01T08:48:55;100418.34;;;20.70;71.27
25156;BME280;21913;52.456;13.634;2022-08-01T08:53:57;100414.81;;;20.71;71.58
25156;BME280;21913;52.456;13.634;2022-08-01T08:58:59;100421.81;;;20.71;71.65
25156;BME280;21913;52.456;13.634;2022-08-01T09:04:02;100428.06;;;20.68;71.32
25156;BME280;21913;52.456;13.634;2022-08-01T09:09:03;100436.97;;;20.64;72.88
25156;BME280;21913;52.456;13.634;2022-08-01T09:19:16;100446.75;;;20.61;74.13
25156;BME280;21913;52.456;13.634;2022-08-01T09:24:18;100448.47;;;20.62;74.45
25156;BME280;21913;52.456;13.634;2022-08-01T09:29:37;100450.16;;;20.63;74.35
25156;BME280;21913;52.456;13.634;2022-08-01T09:34:38;100444.91;;;20.63;74.81
25156;BME280;21913;52.456;13.634;2022-08-01T09:39:40;100453.56;;;20.66;76.73
25156;BME280;21913;52.456;13.634;2022-08-01T09:44:43;100446.56;;;20.65;78.23
25156;BME280;21913;52.456;13.634;2022-08-01T09:49:54;100456.91;;;20.70;80.03
25156;BME280;21913;52.456;13.634;2022-08-01T09:54:59;100454.28;;;20.70;80.92
25156;BME280;21913;52.456;13.634;2022-08-01T10:00:01;100456.97;;;20.68;81.31
25156;BME280;21913;52.456;13.634;2022-08-01T10:05:14;100470.81;;;20.73;81.73
25156;BME280;21913;52.456;13.634;2022-08-01T10:10:15;100472.31;;;20.81;82.54
25156;BME280;21913;52.456;13.634;2022-08-01T10:15:17;100467.69;;;20.87;83.30
25156;BME280;21913;52.456;13.634;2022-08-01T10:20:19;100464.97;;;20.90;83.62
25156;BME280;21913;52.456;13.634;2022-08-01T10:25:21;100471.84;;;20.94;83.70
25156;BME280;21913;52.456;13.634;2022-08-01T10:30:23;100461.19;;;20.97;84.09
25156;BME280;21913;52.456;13.634;2022-08-01T10:35:24;100465.53;;;20.98;84.23
25156;BME280;21913;52.456;13.634;2022-08-01T10:40:26;100471.63;;;21.00;84.14
25156;BME280;21913;52.456;13.634;2022-08-01T10:45:30;100468.06;;;21.01;84.20
25156;BME280;21913;52.456;13.634;2022-08-01T10:55:49;100474.13;;;21.04;84.48
25156;BME280;21913;52.456;13.634;2022-08-01T11:06:17;100484.59;;;21.05;84.70
25156;BME280;21913;52.456;13.634;2022-08-01T11:11:21;100497.78;;;21.04;84.40
25156;BME280;21913;52.456;13.634;2022-08-01T11:16:29;100493.50;;;21.01;84.05
25156;BME280;21913;52.456;13.634;2022-08-01T11:32:24;100501.63;;;20.95;83.34
25156;BME280;21913;52.456;13.634;2022-08-01T11:37:26;100501.50;;;20.98;83.46
25156;BME280;21913;52.456;13.634;2022-08-01T11:42:28;100501.47;;;20.99;83.94
25156;BME280;21913;52.456;13.634;2022-08-01T11:47:48;100503.19;;;21.00;84.09
25156;BME280;21913;52.456;13.634;2022-08-01T11:52:56;100503.19;;;21.00;84.06
25156;BME280;21913;52.456;13.634;2022-08-01T11:58:04;100497.84;;;21.02;84.39
25156;BME280;21913;52.456;13.634;2022-08-01T12:03:06;100504.03;;;21.01;84.15
25156;BME280;21913;52.456;13.634;2022-08-01T12:08:08;100502.25;;;21.01;84.55
25156;BME280;21913;52.456;13.634;2022-08-01T12:13:10;100504.91;;;21.01;84.25
25156;BME280;21913;52.456;13.634;2022-08-01T12:18:11;100511.88;;;21.02;84.44
25156;BME280;21913;52.456;13.634;2022-08-01T12:23:13;100511.94;;;21.01;84.57
25156;BME280;21913;52.456;13.634;2022-08-01T12:28:15;100516.34;;;21.00;84.20
25156;BME280;21913;52.456;13.634;2022-08-01T12:33:17;100519.88;;;20.99;84.16
25156;BME280;21913;52.456;13.634;2022-08-01T12:38:19;100528.63;;;21.00;84.33
25156;BME280;21913;52.456;13.634;2022-08-01T12:43:22;100531.25;;;21.00;84.39
25156;BME280;21913;52.456;13.634;2022-08-01T12:48:24;100528.63;;;21.00;84.29
25156;BME280;21913;52.456;13.634;2022-08-01T12:53:25;100536.53;;;21.00;84.39
25156;BME280;21913;52.456;13.634;2022-08-01T12:58:31;100526.91;;;20.99;84.45
25156;BME280;21913;52.456;13.634;2022-08-01T13:03:32;100523.41;;;20.98;84.68
25156;BME280;21913;52.456;13.634;2022-08-01T13:08:34;100526.03;;;20.98;84.31
25156;BME280;21913;52.456;13.634;2022-08-01T13:13:39;100526.03;;;20.98;84.47
25156;BME280;21913;52.456;13.634;2022-08-01T13:18:41;100521.69;;;20.97;84.65
25156;BME280;21913;52.456;13.634;2022-08-01T13:29:09;100525.19;;;20.98;84.69
25156;BME280;21913;52.456;13.634;2022-08-01T13:34:11;100519.06;;;20.97;84.53
25156;BME280;21913;52.456;13.634;2022-08-01T13:39:12;100517.34;;;20.96;84.81
25156;BME280;21913;52.456;13.634;2022-08-01T13:44:14;100516.44;;;20.97;84.57
25156;BME280;21913;52.456;13.634;2022-08-01T13:49:15;100514.72;;;20.96;84.91
25156;BME280;21913;52.456;13.634;2022-08-01T13:54:17;100511.22;;;20.96;84.63
25156;BME280;21913;52.456;13.634;2022-08-01T13:59:19;100508.59;;;20.96;84.49
25156;BME280;21913;52.456;13.634;2022-08-01T14:04:20;100505.13;;;20.95;84.87
25156;BME280;21913;52.456;13.634;2022-08-01T14:09:22;100515.63;;;20.95;84.55
25156;BME280;21913;52.456;13.634;2022-08-01T14:14:23;100515.63;;;20.95;84.62
25156;BME280;21913;52.456;13.634;2022-08-01T14:19:24;100522.66;;;20.95;84.76
25156;BME280;21913;52.456;13.634;2022-08-01T14:24:26;100527.94;;;20.95;84.64
25156;BME280;21913;52.456;13.634;2022-08-01T14:29:27;100527.06;;;20.94;84.55
25156;BME280;21913;52.456;13.634;2022-08-01T14:34:29;100530.56;;;20.95;84.78
25156;BME280;21913;52.456;13.634;2022-08-01T14:39:30;100521.81;;;20.94;84.61
25156;BME280;21913;52.456;13.634;2022-08-01T14:44:31;100522.72;;;20.93;84.87
25156;BME280;21913;52.456;13.634;2022-08-01T14:49:33;100521.00;;;20.92;84.76
25156;BME280;21913;52.456;13.634;2022-08-01T14:54:35;100509.63;;;20.92;84.76
25156;BME280;21913;52.456;13.634;2022-08-01T14:59:37;100510.47;;;20.92;84.45
25156;BME280;21913;52.456;13.634;2022-08-01T15:04:38;100511.38;;;20.91;84.46
25156;BME280;21913;52.456;13.634;2022-08-01T15:09:40;100514.88;;;20.92;84.67
25156;BME280;21913;52.456;13.634;2022-08-01T15:14:42;100506.97;;;20.92;84.74
25156;BME280;21913;52.456;13.634;2022-08-01T15:19:43;100519.28;;;20.91;84.67
25156;BME280;21913;52.456;13.634;2022-08-01T15:24:45;100516.66;;;20.91;84.55
25156;BME280;21913;52.456;13.634;2022-08-01T15:29:47;100510.47;;;20.92;84.78
25156;BME280;21913;52.456;13.634;2022-08-01T15:34:49;100507.03;;;20.90;84.49
25156;BME280;21913;52.456;13.634;2022-08-01T15:39:50;100509.69;;;20.90;84.42
25156;BME280;21913;52.456;13.634;2022-08-01T15:44:52;100511.38;;;20.91;84.40
25156;BME280;21913;52.456;13.634;2022-08-01T15:49:53;100508.81;;;20.90;84.45
25156;BME280;21913;52.456;13.634;2022-08-01T15:54:55;100518.50;;;20.89;84.65
25156;BME280;21913;52.456;13.634;2022-08-01T15:59:56;100508.88;;;20.88;84.39
25156;BME280;21913;52.456;13.634;2022-08-01T16:04:58;100507.13;;;20.89;84.64
25156;BME280;21913;52.456;13.634;2022-08-01T16:09:59;100499.22;;;20.89;84.45
25156;BME280;21913;52.456;13.634;2022-08-01T16:15:01;100492.25;;;20.88;84.79
25156;BME280;21913;52.456;13.634;2022-08-01T16:20:02;100506.25;;;20.88;84.36
25156;BME280;21913;52.456;13.634;2022-08-01T16:25:04;100501.88;;;20.87;84.63
25156;BME280;21913;52.456;13.634;2022-08-01T16:30:05;100507.97;;;20.89;84.25
25156;BME280;21913;52.456;13.634;2022-08-01T16:35:07;100501.88;;;20.87;84.30
25156;BME280;21913;52.456;13.634;2022-08-01T16:40:09;100507.13;;;20.87;84.47
25156;BME280;21913;52.456;13.634;2022-08-01T16:45:10;100506.28;;;20.87;84.70
25156;BME280;21913;52.456;13.634;2022-08-01T16:50:12;100506.28;;;20.87;84.22
25156;BME280;21913;52.456;13.634;2022-08-01T16:55:13;100503.66;;;20.87;84.25
25156;BME280;21913;52.456;13.634;2022-08-01T17:00:15;100505.44;;;20.86;84.29
25156;BME280;21913;52.456;13.634;2022-08-01T17:05:17;100499.31;;;20.86;84.59
25156;BME280;21913;52.456;13.634;2022-08-01T17:10:19;100502.81;;;20.86;84.43
25156;BME280;21913;52.456;13.634;2022-08-01T17:15:20;100501.09;;;20.85;84.32
25156;BME280;21913;52.456;13.634;2022-08-01T17:20:22;100508.13;;;20.85;84.13
25156;BME280;21913;52.456;13.634;2022-08-01T17:25:23;100505.50;;;20.85;84.20
25156;BME280;21913;52.456;13.634;2022-08-01T17:30:25;100513.38;;;20.85;84.13
25156;BME280;21913;52.456;13.634;2022-08-01T17:35:26;100513.38;;;20.85;84.43
25156;BME280;21913;52.456;13.634;2022-08-01T17:40:28;100516.88;;;20.85;84.09
25156;BME280;21913;52.456;13.634;2022-08-01T17:45:40;100521.28;;;20.85;84.15
25156;BME280;21913;52.456;13.634;2022-08-01T17:50:42;100516.06;;;20.83;83.54
25156;BME280;21913;52.456;13.634;2022-08-01T17:55:44;100527.44;;;20.84;82.67
25156;BME280;21913;52.456;13.634;2022-08-01T18:00:45;100522.19;;;20.84;82.43
25156;BME280;21913;52.456;13.634;2022-08-01T18:05:47;100523.91;;;20.85;82.54
25156;BME280;21913;52.456;13.634;2022-08-01T18:10:48;100530.03;;;20.85;82.69
25156;BME280;21913;52.456;13.634;2022-08-01T18:15:50;100523.03;;;20.84;82.62
25156;BME280;21913;52.456;13.634;2022-08-01T18:20:51;100517.78;;;20.84;82.46
25156;BME280;21913;52.456;13.634;2022-08-01T18:25:53;100521.28;;;20.85;82.47
25156;BME280;21913;52.456;13.634;2022-08-01T18:30:54;100517.78;;;20.84;82.71
25156;BME280;21913;52.456;13.634;2022-08-01T18:35:56;100523.97;;;20.83;82.67
25156;BME280;21913;52.456;13.634;2022-08-01T18:40:58;100522.41;;;20.78;81.65
25156;BME280;21913;52.456;13.634;2022-08-01T18:45:59;100524.41;;;20.69;79.36
25156;BME280;21913;52.456;13.634;2022-08-01T18:51:01;100525.41;;;20.67;78.33
25156;BME280;21913;52.456;13.634;2022-08-01T18:56:02;100531.59;;;20.64;77.48
25156;BME280;21913;52.456;13.634;2022-08-01T19:01:04;100535.16;;;20.63;77.72
25156;BME280;21913;52.456;13.634;2022-08-01T19:06:05;100546.63;;;20.61;77.47
25156;BME280;21913;52.456;13.634;2022-08-01T19:11:07;100553.75;;;20.57;77.08
25156;BME280;21913;52.456;13.634;2022-08-01T19:16:08;100547.69;;;20.55;75.85
25156;BME280;21913;52.456;13.634;2022-08-01T19:21:10;100554.75;;;20.53;75.59
25156;BME280;21913;52.456;13.634;2022-08-01T19:26:11;100558.22;;;20.55;76.25
25156;BME280;21913;52.456;13.634;2022-08-01T19:31:16;100577.34;;;20.59;76.55
25156;BME280;21913;52.456;13.634;2022-08-01T19:36:20;100570.25;;;20.62;76.51
25156;BME280;21913;52.456;13.634;2022-08-01T19:41:22;100585.03;;;20.65;76.20
25156;BME280;21913;52.456;13.634;2022-08-01T19:46:23;100589.34;;;20.67;76.53
25156;BME280;21913;52.456;13.634;2022-08-01T19:51:24;100584.94;;;20.68;76.78
25156;BME280;21913;52.456;13.634;2022-08-01T19:56:28;100582.25;;;20.69;76.98
25156;BME280;21913;52.456;13.634;2022-08-01T20:01:35;100594.50;;;20.70;77.54
25156;BME280;21913;52.456;13.634;2022-08-01T20:06:37;100595.34;;;20.71;78.00
25156;BME280;21913;52.456;13.634;2022-08-01T20:11:49;100580.47;;;20.71;78.02
25156;BME280;21913;52.456;13.634;2022-08-01T20:16:51;100594.47;;;20.72;78.57
25156;BME280;21913;52.456;13.634;2022-08-01T20:22:00;100604.13;;;20.71;78.52
25156;BME280;21913;52.456;13.634;2022-08-01T20:27:03;100600.59;;;20.71;78.65
25156;BME280;21913;52.456;13.634;2022-08-01T20:32:05;100593.63;;;20.71;79.28
25156;BME280;21913;52.456;13.634;2022-08-01T20:37:07;100590.09;;;20.71;79.19
25156;BME280;21913;52.456;13.634;2022-08-01T20:42:08;100601.50;;;20.71;79.32
25156;BME280;21913;52.456;13.634;2022-08-01T20:47:10;100604.13;;;20.71;79.43
25156;BME280;21913;52.456;13.634;2022-08-01T20:52:12;100601.44;;;20.73;79.57
25156;BME280;21913;52.456;13.634;2022-08-01T20:57:18;100604.97;;;20.72;79.62
25156;BME280;21913;52.456;13.634;2022-08-01T21:02:30;100618.13;;;20.72;80.07
25156;BME280;21913;52.456;13.634;2022-08-01T21:07:38;100608.50;;;20.71;79.80
25156;BME280;21913;52.456;13.634;2022-08-01T21:18:00;100619.00;;;20.71;80.10
25156;BME280;21913;52.456;13.634;2022-08-01T21:23:10;100614.59;;;20.73;80.07
25156;BME280;21913;52.456;13.634;2022-08-01T21:28:14;100612.00;;;20.71;80.05
25156;BME280;21913;52.456;13.634;2022-08-01T21:33:16;100610.28;;;20.70;79.97
25156;BME280;21913;52.456;13.634;2022-08-01T21:38:17;100601.50;;;20.71;79.90
25156;BME280;21913;52.456;13.634;2022-08-01T21:43:19;100603.25;;;20.71;79.97
25156;BME280;21913;52.456;13.634;2022-08-01T21:48:21;100600.59;;;20.71;80.17
25156;BME280;21913;52.456;13.634;2022-08-01T21:53:35;100586.59;;;20.70;79.97
25156;BME280;21913;52.456;13.634;2022-08-01T22:04:11;100594.50;;;20.70;80.28
25156;BME280;21913;52.456;13.634;2022-08-01T22:09:13;100594.50;;;20.70;80.02
25156;BME280;21913;52.456;13.634;2022-08-01T22:14:15;100594.50;;;20.70;80.31
25156;BME280;21913;52.456;13.634;2022-08-01T22:19:19;100591.00;;;20.70;80.06
25156;BME280;21913;52.456;13.634;2022-08-01T22:24:20;100597.13;;;20.70;80.06
25156;BME280;21913;52.456;13.634;2022-08-01T22:29:22;100608.56;;;20.69;80.25
25156;BME280;21913;52.456;13.634;2022-08-01T22:34:23;100607.63;;;20.70;80.40
25156;BME280;21913;52.456;13.634;2022-08-01T22:39:25;100604.16;;;20.70;80.27
25156;BME280;21913;52.456;13.634;2022-08-01T22:44:28;100608.50;;;20.71;80.45
25156;BME280;21913;52.456;13.634;2022-08-01T22:50:06;100609.41;;;20.70;79.99
25156;BME280;21913;52.456;13.634;2022-08-01T22:55:02;100605.00;;;20.70;80.33
25156;BME280;21913;52.456;13.634;2022-08-01T23:00:05;100616.38;;;20.71;80.07
25156;BME280;21913;52.456;13.634;2022-08-01T23:05:07;100611.19;;;20.69;80.37
25156;BME280;21913;52.456;13.634;2022-08-01T23:10:11;100609.41;;;20.70;80.09
25156;BME280;21913;52.456;13.634;2022-08-01T23:15:13;100618.22;;;20.69;80.42
25156;BME280;21913;52.456;13.634;2022-08-01T23:20:15;100628.72;;;20.69;80.11
25156;BME280;21913;52.456;13.634;2022-08-01T23:25:17;100624.34;;;20.69;80.37
25156;BME280;21913;52.456;13.634;2022-08-01T23:30:18;100630.44;;;20.70;80.05
25156;BME280;21913;52.456;13.634;2022-08-01T23:35:21;100627.88;;;20.68;80.37
25156;BME280;21913;52.456;13.634;2022-08-01T23:40:22;100622.63;;;20.68;80.18
25156;BME280;21913;52.456;13.634;2022-08-01T23:45:24;100618.28;;;20.67;80.04
25156;BME280;21913;52.456;13.634;2022-08-01T23:50:25;100606.00;;;20.68;80.06
25156;BME280;21913;52.456;13.634;2022-08-01T23:55:27;100611.25;;;20.68;80.38
